Time;durP1;ratioP1;P1;durP2;ratioP2;P2;SDS_P1;SDS_P2;PMS_P1;PMS_P2;Temp;Humidity;BMP_temperature;BMP_pressure;BME280_temperature;BME280_humidity;BME280_pressure;Samples;Min_cycle;Max_cycle;Signal;HPM_P1;HPM_P2
2022/06/01 00:01:26;;;;;;;3.15;2.10;;;11.00;93.10;;;;;;5086760;28;20028;-69
2022/06/01 00:03:51;;;;;;;6.07;2.13;;;10.80;93.50;;;;;;5104763;28;20304;-69
2022/06/01 00:06:17;;;;;;;3.47;1.77;;;10.70;93.50;;;;;;5086279;28;20035;-69
2022/06/01 00:08:43;;;;;;;3.40;1.70;;;10.70;93.60;;;;;;5086753;28;20016;-69
2022/06/01 00:11:09;;;;;;;4.63;1.77;;;10.70;93.70;;;;;;5084380;28;20038;-69
2022/06/01 00:13:35;;;;;;;7.55;2.03;;;10.70;93.60;;;;;;5084217;28;20017;-69
2022/06/01 00:16:01;;;;;;;3.53;1.42;;;10.70;93.60;;;;;;5082299;28;20024;-69
2022/06/01 00:18:30;;;;;;;6.53;1.80;;;10.70;93.60;;;;;;5065975;28;20180;-68
2022/06/01 00:20:56;;;;;;;4.72;2.20;;;10.70;93.60;;;;;;5084125;28;20289;-67
2022/06/01 00:23:22;;;;;;;3.58;2.35;;;10.70;93.80;;;;;;5082797;28;20028;-69
2022/06/01 00:25:48;;;;;;;5.40;2.20;;;10.70;94.00;;;;;;5086436;28;20032;-69
2022/06/01 00:28:14;;;;;;;2.53;2.20;;;10.70;94.10;;;;;;5123289;28;20081;-69
2022/06/01 00:30:39;;;;;;;3.05;1.50;;;10.80;94.10;;;;;;5106400;28;20027;-69
2022/06/01 00:33:05;;;;;;;5.82;2.03;;;10.80;94.10;;;;;;5123503;28;20087;-69
2022/06/01 00:35:31;;;;;;;4.43;1.90;;;10.80;94.30;;;;;;5123258;28;20028;-69
2022/06/01 00:38:00;;;;;;;3.80;2.03;;;10.70;94.70;;;;;;5124019;28;20031;-69
2022/06/01 00:40:28;;;;;;;3.70;2.03;;;10.70;94.80;;;;;;5122713;28;20081;-69
2022/06/01 00:42:58;;;;;;;4.18;1.92;;;10.70;94.80;;;;;;5105984;28;20380;-69
2022/06/01 00:45:25;;;;;;;2.85;1.83;;;10.80;94.70;;;;;;5123323;28;20027;-69
2022/06/01 00:47:52;;;;;;;5.13;1.70;;;10.90;94.70;;;;;;5105983;28;20054;-69
2022/06/01 00:50:25;;;;;;;2.60;1.67;;;11.00;94.50;;;;;;5102720;28;20063;-69
2022/06/01 00:52:57;;;;;;;2.95;1.60;;;11.20;94.10;;;;;;5103838;28;20028;-69
2022/06/01 00:55:31;;;;;;;2.97;1.67;;;11.30;94.00;;;;;;5103788;28;20027;-69
2022/06/01 00:58:10;;;;;;;2.58;1.10;;;11.40;93.80;;;;;;5085596;28;20016;-70
2022/06/01 01:00:39;;;;;;;1.60;1.25;;;11.40;94.00;;;;;;5103725;28;20023;-69
2022/06/01 01:03:06;;;;;;;1.73;1.20;;;11.50;93.50;;;;;;5102676;28;20069;-69
2022/06/01 01:05:33;;;;;;;3.85;1.38;;;11.40;93.40;;;;;;5102860;28;20043;-69
2022/06/01 01:08:03;;;;;;;5.38;1.50;;;11.40;93.40;;;;;;5094008;28;20031;-69
2022/06/01 01:10:28;;;;;;;5.72;1.20;;;11.40;93.50;;;;;;5082147;28;20029;-69
2022/06/01 01:12:57;;;;;;;1.52;1.20;;;11.40;93.70;;;;;;5083374;28;20027;-69
2022/06/01 01:15:27;;;;;;;3.50;1.35;;;11.40;93.80;;;;;;5081620;28;20066;-70
2022/06/01 01:17:54;;;;;;;2.05;1.35;;;11.40;93.90;;;;;;5082095;28;20066;-69
2022/06/01 01:20:20;;;;;;;10.05;1.60;;;11.40;94.00;;;;;;5083202;28;20092;-69
2022/06/01 01:23:13;;;;;;;4.82;1.50;;;11.40;94.00;;;;;;5083276;28;20036;-69
2022/06/01 01:25:39;;;;;;;4.15;1.60;;;11.30;94.00;;;;;;5086073;28;20029;-69
2022/06/01 01:28:07;;;;;;;6.07;1.90;;;11.20;94.10;;;;;;5065590;28;20028;-69
2022/06/01 01:30:43;;;;;;;6.93;2.08;;;11.10;94.30;;;;;;5082080;28;20042;-69
2022/06/01 01:33:14;;;;;;;2.58;1.30;;;11.10;94.50;;;;;;5065430;28;20070;-69
2022/06/01 01:35:45;;;;;;;3.05;1.40;;;11.20;94.60;;;;;;5083131;28;20024;-69
2022/06/01 01:38:31;;;;;;;2.15;1.52;;;11.10;94.80;;;;;;5081476;28;20083;-67
2022/06/01 01:41:01;;;;;;;6.85;1.63;;;11.10;94.60;;;;;;5083318;28;20020;-69
2022/06/01 01:43:27;;;;;;;5.40;1.92;;;11.10;94.70;;;;;;5064903;28;20024;-68
2022/06/01 01:45:52;;;;;;;3.78;1.63;;;11.10;94.90;;;;;;5082159;28;20065;-70
2022/06/01 01:48:18;;;;;;;3.08;1.73;;;11.10;95.20;;;;;;5103120;28;20270;-67
2022/06/01 01:50:44;;;;;;;5.95;2.10;;;11.20;95.40;;;;;;5103167;28;20055;-67
2022/06/01 01:53:09;;;;;;;3.13;2.10;;;11.20;95.50;;;;;;5103696;28;20028;-69
2022/06/01 01:55:45;;;;;;;4.25;2.10;;;11.20;95.50;;;;;;5089027;28;20229;-69
2022/06/01 01:58:32;;;;;;;3.72;1.60;;;11.20;95.50;;;;;;5106086;28;20031;-69
2022/06/01 02:01:03;;;;;;;3.90;1.95;;;11.30;95.50;;;;;;5106118;28;20016;-69
2022/06/01 02:03:35;;;;;;;;;;;11.40;95.50;;;;;;5106484;28;20024;-69
2022/06/01 02:06:32;;;;;;;2.78;1.85;;;11.40;95.50;;;;;;5107057;28;19900;-69
2022/06/01 02:09:15;;;;;;;5.72;2.05;;;11.40;95.50;;;;;;5087316;28;20016;-67
2022/06/01 02:14:47;;;;;;;5.75;1.98;;;11.40;95.60;;;;;;5071386;28;20017;-68
2022/06/01 02:17:19;;;;;;;5.45;1.90;;;11.50;95.60;;;;;;5083900;28;20031;-68
2022/06/01 02:19:48;;;;;;;;;;;11.50;95.60;;;;;;5086436;28;20250;-68
2022/06/01 02:22:14;;;;;;;4.72;1.95;;;11.60;95.50;;;;;;5086377;28;19900;-69
2022/06/01 02:24:41;;;;;;;2.67;2.08;;;11.60;95.60;;;;;;5085177;28;20016;-68
2022/06/01 02:27:09;;;;;;;4.93;2.20;;;11.60;95.70;;;;;;5097348;28;20345;-68
2022/06/01 02:29:42;;;;;;;6.28;2.20;;;11.60;95.70;;;;;;5105154;28;20020;-68
2022/06/01 02:32:09;;;;;;;4.30;2.60;;;11.60;95.80;;;;;;5105443;28;20064;-68
2022/06/01 02:34:37;;;;;;;4.78;2.40;;;11.60;96.00;;;;;;5106397;28;20211;-68
2022/06/01 02:37:07;;;;;;;4.40;2.47;;;11.60;96.10;;;;;;5105211;28;20062;-68
2022/06/01 02:39:37;;;;;;;6.22;2.75;;;11.60;96.30;;;;;;5105788;28;20020;-69
2022/06/01 02:42:29;;;;;;;5.78;3.47;;;11.50;96.50;;;;;;5088439;28;20024;-68
2022/06/01 02:44:56;;;;;;;4.18;2.85;;;11.50;96.70;;;;;;5105385;28;20020;-69
2022/06/01 02:47:22;;;;;;;6.10;3.13;;;11.50;97.00;;;;;;5105013;28;20024;-68
2022/06/01 02:49:48;;;;;;;8.43;3.78;;;11.60;97.30;;;;;;5104453;28;20024;-68
2022/06/01 02:52:14;;;;;;;5.32;3.40;;;11.70;97.50;;;;;;5105099;28;20047;-68
2022/06/01 02:54:40;;;;;;;4.97;3.30;;;11.70;97.70;;;;;;5105668;28;20087;-68
2022/06/01 02:57:06;;;;;;;6.70;3.88;;;11.70;98.30;;;;;;5104529;28;20043;-68
2022/06/01 02:59:32;;;;;;;5.80;3.65;;;11.70;98.80;;;;;;5106014;28;20267;-68
2022/06/01 03:01:59;;;;;;;8.18;4.00;;;11.70;99.00;;;;;;5105729;28;20015;-68
2022/06/01 03:04:26;;;;;;;9.48;4.18;;;11.70;99.00;;;;;;5087398;28;20020;-68
2022/06/01 03:06:52;;;;;;;8.40;4.13;;;11.80;99.10;;;;;;5105470;28;20020;-68
2022/06/01 03:09:18;;;;;;;11.35;3.75;;;11.90;99.20;;;;;;5067203;28;20058;-68
2022/06/01 03:11:44;;;;;;;7.90;4.57;;;11.90;99.30;;;;;;5067582;28;20103;-68
2022/06/01 03:14:10;;;;;;;7.05;3.75;;;11.90;99.20;;;;;;5084367;28;20024;-68
2022/06/01 03:16:37;;;;;;;7.07;4.25;;;11.90;99.20;;;;;;5067628;28;20017;-68
2022/06/01 03:19:04;;;;;;;8.65;4.28;;;11.90;99.30;;;;;;5082375;28;20026;-68
2022/06/01 03:21:30;;;;;;;26.95;5.10;;;11.90;99.30;;;;;;5083888;28;20303;-68
2022/06/01 03:23:55;;;;;;;6.85;4.57;;;11.90;99.40;;;;;;5084147;28;20028;-68
2022/06/01 03:26:22;;;;;;;8.63;4.45;;;12.00;99.40;;;;;;5096034;28;20321;-68
2022/06/01 03:28:48;;;;;;;14.57;4.70;;;12.10;99.10;;;;;;5090696;28;20031;-68
2022/06/01 03:31:14;;;;;;;5.50;3.88;;;12.00;99.00;;;;;;5107450;28;20306;-67
2022/06/01 03:33:40;;;;;;;6.53;4.20;;;12.00;99.10;;;;;;5124351;28;20094;-68
2022/06/01 03:36:06;;;;;;;12.48;4.88;;;12.00;99.20;;;;;;5124762;28;20019;-68
2022/06/01 03:38:32;;;;;;;8.68;4.38;;;12.00;99.30;;;;;;5123999;28;20024;-69
2022/06/01 03:40:58;;;;;;;10.63;4.40;;;12.00;99.40;;;;;;5124222;28;20084;-68
2022/06/01 03:43:24;;;;;;;8.57;4.38;;;12.00;99.50;;;;;;5125552;28;20229;-68
2022/06/01 03:45:58;;;;;;;7.22;4.07;;;12.10;99.70;;;;;;5107416;28;20026;-69
2022/06/01 03:48:27;;;;;;;10.15;4.25;;;12.00;99.90;;;;;;5084745;28;20031;-69
2022/06/01 03:50:53;;;;;;;9.85;4.35;;;12.10;99.90;;;;;;5084291;28;20331;-68
2022/06/01 03:53:19;;;;;;;10.75;4.10;;;12.10;99.90;;;;;;5083361;28;20031;-69
2022/06/01 03:55:45;;;;;;;6.35;4.18;;;12.10;99.90;;;;;;5087458;28;20072;-69
2022/06/01 03:58:15;;;;;;;9.73;4.50;;;12.10;99.90;;;;;;5104052;28;20016;-69
2022/06/01 04:00:41;;;;;;;6.32;4.60;;;12.10;99.90;;;;;;5086204;28;20016;-69
2022/06/01 04:03:07;;;;;;;5.93;4.03;;;12.10;99.90;;;;;;5103409;28;20265;-68
2022/06/01 04:05:32;;;;;;;7.80;4.25;;;12.10;99.90;;;;;;5103227;28;20024;-70
2022/06/01 04:07:58;;;;;;;9.70;4.25;;;12.00;99.90;;;;;;5094203;28;20028;-68
2022/06/01 04:10:24;;;;;;;9.77;4.60;;;12.10;99.90;;;;;;5082463;28;20013;-69
2022/06/01 04:12:49;;;;;;;7.38;4.28;;;12.10;99.90;;;;;;5083929;28;20048;-68
2022/06/01 04:15:18;;;;;;;8.23;4.35;;;12.10;99.90;;;;;;5084327;28;20028;-67
2022/06/01 04:17:44;;;;;;;6.32;3.78;;;12.10;99.90;;;;;;5082412;28;20028;-68
2022/06/01 04:20:11;;;;;;;11.85;4.50;;;12.10;99.90;;;;;;5082276;28;20204;-68
2022/06/01 04:22:40;;;;;;;5.53;3.40;;;12.00;99.90;;;;;;5082811;28;20020;-68
2022/06/01 04:25:08;;;;;;;7.00;3.85;;;12.00;99.90;;;;;;5082912;28;20057;-67
2022/06/01 04:27:34;;;;;;;8.50;4.07;;;11.90;99.90;;;;;;5098819;28;20311;-68
2022/06/01 04:30:00;;;;;;;7.93;4.05;;;11.90;99.90;;;;;;5123376;28;20357;-68
2022/06/01 04:32:31;;;;;;;7.38;4.20;;;11.70;99.90;;;;;;5124317;28;20016;-68
2022/06/01 04:34:57;;;;;;;7.57;3.77;;;11.60;99.90;;;;;;5124472;28;20211;-68
2022/06/01 04:37:23;;;;;;;9.10;3.80;;;11.60;99.90;;;;;;5106381;28;20024;-66
2022/06/01 04:39:49;;;;;;;7.68;4.75;;;11.50;99.90;;;;;;5122997;28;20051;-70
2022/06/01 04:42:14;;;;;;;4.68;3.97;;;11.50;99.90;;;;;;5124265;28;20031;-70
2022/06/01 04:44:41;;;;;;;5.20;4.00;;;11.50;99.90;;;;;;5124352;28;20027;-69
2022/06/01 04:47:08;;;;;;;8.95;4.30;;;11.50;99.90;;;;;;5095047;28;20042;-70
2022/06/01 04:49:36;;;;;;;13.30;5.18;;;11.50;99.90;;;;;;5103782;28;20022;-70
2022/06/01 04:52:03;;;;;;;8.32;4.18;;;11.60;99.90;;;;;;5102286;28;20048;-68
2022/06/01 04:54:28;;;;;;;6.60;4.15;;;11.70;99.90;;;;;;5103855;28;20048;-69
2022/06/01 04:56:54;;;;;;;6.32;3.80;;;11.80;99.90;;;;;;5103869;28;20074;-69
2022/06/01 04:59:20;;;;;;;8.15;4.40;;;11.90;99.90;;;;;;5086003;28;20020;-68
2022/06/01 05:01:46;;;;;;;6.45;3.78;;;11.80;99.90;;;;;;5102763;28;20031;-68
2022/06/01 05:04:12;;;;;;;8.75;4.05;;;11.70;99.90;;;;;;5103794;28;20176;-69
2022/06/01 05:06:37;;;;;;;5.70;3.55;;;11.70;99.90;;;;;;5102421;28;20035;-69
2022/06/01 05:09:03;;;;;;;7.10;2.90;;;11.70;99.90;;;;;;5083786;28;20030;-69
2022/06/01 05:11:29;;;;;;;9.25;3.40;;;11.90;99.90;;;;;;5083487;28;20055;-68
2022/06/01 05:13:55;;;;;;;8.10;3.90;;;12.00;99.90;;;;;;5082131;28;20048;-68
2022/06/01 05:16:20;;;;;;;8.27;3.53;;;12.10;99.90;;;;;;5082497;28;20254;-68
2022/06/01 05:18:46;;;;;;;7.30;3.72;;;12.30;99.90;;;;;;5083359;28;20110;-69
2022/06/01 05:21:12;;;;;;;7.00;3.90;;;12.40;99.90;;;;;;5080794;28;20258;-68
2022/06/01 05:23:38;;;;;;;5.63;3.80;;;12.40;99.90;;;;;;5082139;28;20024;-67
2022/06/01 05:26:04;;;;;;;11.95;3.85;;;12.50;99.80;;;;;;5089956;28;20218;-68
2022/06/01 05:28:32;;;;;;;7.50;3.63;;;12.60;99.60;;;;;;5126263;28;20023;-68
2022/06/01 05:31:00;;;;;;;8.75;3.08;;;12.60;99.60;;;;;;5128117;28;20035;-68
2022/06/01 05:33:26;;;;;;;6.68;3.83;;;12.60;99.30;;;;;;5127781;28;20020;-68
2022/06/01 05:35:52;;;;;;;8.73;3.15;;;12.70;99.20;;;;;;5109554;28;20098;-68
2022/06/01 05:38:17;;;;;;;5.10;2.97;;;12.80;99.10;;;;;;5109594;28;20050;-68
2022/06/01 05:40:43;;;;;;;5.47;3.20;;;12.90;99.00;;;;;;5126851;28;20095;-68
2022/06/01 05:43:13;;;;;;;6.07;2.50;;;12.90;98.90;;;;;;5126384;28;20024;-68
2022/06/01 05:45:39;;;;;;;4.13;2.70;;;13.00;98.90;;;;;;5126686;28;20020;-69
2022/06/01 05:48:08;;;;;;;5.47;2.63;;;13.10;98.70;;;;;;5086906;28;20099;-69
2022/06/01 05:50:34;;;;;;;9.88;2.75;;;13.10;98.40;;;;;;5085325;28;20369;-69
2022/06/01 05:53:00;;;;;;;7.78;2.30;;;13.10;98.40;;;;;;5084909;28;20055;-69
2022/06/01 05:55:26;;;;;;;3.55;2.40;;;13.20;98.20;;;;;;5088273;28;20036;-69
2022/06/01 05:57:51;;;;;;;10.30;2.90;;;13.40;97.60;;;;;;5107268;28;20023;-69
2022/06/01 06:00:18;;;;;;;9.52;3.25;;;13.40;97.70;;;;;;5105799;28;20054;-69
2022/06/01 06:02:43;;;;;;;10.35;3.30;;;13.40;97.80;;;;;;5106959;28;20084;-68
2022/06/01 06:07:57;;;;;;;13.27;3.67;;;13.40;97.90;;;;;;5085533;28;20025;-70
2022/06/01 06:10:24;;;;;;;9.80;3.25;;;13.40;97.80;;;;;;5085260;28;20055;-68
2022/06/01 06:12:49;;;;;;;11.05;3.40;;;13.40;97.80;;;;;;5086297;28;20298;-68
2022/06/01 06:15:25;;;;;;;9.52;3.20;;;13.50;97.80;;;;;;5085214;28;20035;-68
2022/06/01 06:17:51;;;;;;;3.45;2.90;;;13.60;97.70;;;;;;5085657;28;20308;-70
2022/06/01 06:20:17;;;;;;;11.15;3.65;;;13.80;97.40;;;;;;5085232;28;20023;-69
2022/06/01 06:22:45;;;;;;;13.95;3.10;;;13.90;97.20;;;;;;5083523;28;20069;-70
2022/06/01 06:25:10;;;;;;;12.90;2.95;;;14.00;97.20;;;;;;5084987;28;20028;-70
2022/06/01 06:27:36;;;;;;;5.22;2.08;;;14.00;97.00;;;;;;5119432;28;20211;-70
2022/06/01 06:30:03;;;;;;;5.93;1.92;;;14.10;96.80;;;;;;5125808;28;20314;-70
2022/06/01 06:32:28;;;;;;;5.13;2.10;;;14.30;95.70;;;;;;5125613;28;20040;-69
2022/06/01 06:34:54;;;;;;;5.18;2.70;;;14.40;95.40;;;;;;5091349;28;20326;-69
2022/06/01 06:37:20;;;;;;;7.10;2.40;;;14.40;95.10;;;;;;5125412;28;20046;-69
2022/06/01 06:39:49;;;;;;;6.65;2.10;;;14.40;95.40;;;;;;5107279;28;20311;-70
2022/06/01 06:42:14;;;;;;;3.42;2.08;;;14.50;95.40;;;;;;5125715;28;20051;-70
2022/06/01 06:44:40;;;;;;;4.05;2.10;;;14.60;95.20;;;;;;5125231;28;20223;-70
2022/06/01 06:47:06;;;;;;;4.18;2.05;;;14.60;95.10;;;;;;5114442;28;20020;-71
2022/06/01 06:49:35;;;;;;;6.68;2.67;;;14.80;94.90;;;;;;5106053;28;20042;-70
2022/06/01 06:52:01;;;;;;;6.13;2.78;;;14.90;94.40;;;;;;5088040;28;20219;-70
2022/06/01 06:54:27;;;;;;;7.00;2.90;;;15.00;94.80;;;;;;5105822;28;20012;-70
2022/06/01 06:56:52;;;;;;;10.18;2.47;;;14.90;94.90;;;;;;5067996;28;20028;-69
2022/06/01 06:59:18;;;;;;;9.13;2.30;;;14.90;94.80;;;;;;5084604;28;20107;-70
2022/06/01 07:01:44;;;;;;;7.45;2.03;;;14.80;94.80;;;;;;5084716;28;20043;-70
2022/06/01 07:04:10;;;;;;;9.00;2.30;;;14.70;95.10;;;;;;5084001;28;20024;-71
2022/06/01 07:06:38;;;;;;;3.95;1.25;;;14.60;95.10;;;;;;5084578;28;20028;-70
2022/06/01 07:09:07;;;;;;;4.15;1.52;;;14.60;94.80;;;;;;5102181;28;20023;-70
2022/06/01 07:11:32;;;;;;;5.95;1.90;;;14.60;94.50;;;;;;5088143;28;20036;-70
2022/06/01 07:13:59;;;;;;;2.45;1.30;;;14.80;94.70;;;;;;5087367;28;20250;-69
2022/06/01 07:16:28;;;;;;;2.70;1.35;;;14.90;94.20;;;;;;5105305;28;20042;-70
2022/06/01 07:18:56;;;;;;;1.45;0.80;;;14.90;94.10;;;;;;5087295;28;20027;-69
2022/06/01 07:21:22;;;;;;;2.25;0.90;;;14.80;92.90;;;;;;5105448;28;20162;-69
2022/06/01 07:23:48;;;;;;;3.05;0.80;;;14.80;92.90;;;;;;5102580;28;20012;-71
2022/06/01 07:26:18;;;;;;;5.95;3.25;;;14.60;93.40;;;;;;5092120;28;20318;-69
2022/06/01 07:28:44;;;;;;;4.22;1.00;;;14.50;93.30;;;;;;5107751;28;20020;-71
2022/06/01 07:31:10;;;;;;;0.80;0.40;;;14.40;93.20;;;;;;5107759;28;20317;-70
2022/06/01 07:33:36;;;;;;;2.83;1.15;;;14.30;92.30;;;;;;5124447;28;20326;-70
2022/06/01 07:36:05;;;;;;;1.80;0.80;;;14.30;92.70;;;;;;5124336;28;20064;-69
2022/06/01 07:44:09;;;;;;;1.08;0.52;;;14.50;91.90;;;;;;5110688;28;20046;-70
2022/06/01 07:46:36;;;;;;;1.40;0.50;;;14.40;91.60;;;;;;5097531;28;20236;-70
2022/06/01 07:49:02;;;;;;;0.90;0.63;;;14.30;91.70;;;;;;5084585;28;20028;-70
2022/06/01 07:51:28;;;;;;;2.97;0.90;;;14.30;91.50;;;;;;5084238;28;20067;-70
2022/06/01 07:53:55;;;;;;;1.88;0.50;;;14.40;91.50;;;;;;5083260;28;20016;-70
2022/06/01 07:56:21;;;;;;;0.57;0.50;;;14.50;91.60;;;;;;5088854;28;20032;-71
2022/06/01 07:58:47;;;;;;;0.95;0.50;;;14.50;91.20;;;;;;5066915;28;20055;-69
2022/06/01 08:01:13;;;;;;;1.98;0.50;;;14.60;90.90;;;;;;5083226;28;20043;-70
2022/06/01 08:03:38;;;;;;;2.10;0.55;;;14.70;90.80;;;;;;5083464;28;20278;-70
2022/06/01 08:06:04;;;;;;;3.17;0.40;;;14.80;90.50;;;;;;5065967;28;20070;-69
2022/06/01 08:08:30;;;;;;;1.70;0.50;;;14.80;90.20;;;;;;5066336;28;20366;-70
2022/06/01 08:10:59;;;;;;;0.85;0.40;;;14.90;90.10;;;;;;5083362;28;20024;-69
2022/06/01 08:13:25;;;;;;;1.60;0.57;;;15.00;89.10;;;;;;5084324;28;20032;-69
2022/06/01 08:15:52;;;;;;;4.32;0.70;;;15.00;88.90;;;;;;5082843;28;20032;-70
2022/06/01 08:18:20;;;;;;;3.28;0.70;;;15.00;88.80;;;;;;5066157;28;20216;-70
2022/06/01 08:20:47;;;;;;;2.08;0.50;;;15.10;88.50;;;;;;5083152;28;20021;-70
2022/06/01 08:23:13;;;;;;;1.77;0.60;;;15.10;88.80;;;;;;5081489;28;20021;-70
2022/06/01 08:25:40;;;;;;;1.48;0.55;;;15.30;88.00;;;;;;5082700;28;20027;-70
2022/06/01 08:28:07;;;;;;;3.45;1.40;;;15.40;87.80;;;;;;5103065;28;20027;-69
2022/06/01 08:30:34;;;;;;;2.60;0.60;;;15.40;87.10;;;;;;5103062;28;20051;-70
2022/06/01 08:33:03;;;;;;;3.08;0.70;;;15.40;87.00;;;;;;5085872;28;20035;-70
2022/06/01 08:35:32;;;;;;;2.30;0.70;;;15.40;86.20;;;;;;5102285;28;20031;-70
2022/06/01 08:37:59;;;;;;;2.50;0.60;;;15.40;86.50;;;;;;5086209;28;20215;-70
2022/06/01 08:40:29;;;;;;;5.05;0.73;;;15.70;86.30;;;;;;5102760;28;20079;-69
2022/06/01 08:43:01;;;;;;;1.05;0.60;;;15.90;84.60;;;;;;5086052;28;20035;-70
2022/06/01 08:45:28;;;;;;;2.97;0.90;;;15.90;84.10;;;;;;5103983;28;20076;-70
2022/06/01 08:47:54;;;;;;;2.72;0.60;;;15.80;85.10;;;;;;5085707;28;20027;-70
2022/06/01 08:50:30;;;;;;;0.50;0.40;;;15.80;85.10;;;;;;5102376;28;20052;-71
2022/06/01 08:53:02;;;;;;;1.13;0.60;;;16.00;83.90;;;;;;5086631;28;20036;-70
2022/06/01 08:55:35;;;;;;;1.27;0.57;;;15.80;83.60;;;;;;5086425;28;20019;-73
2022/06/01 08:58:11;;;;;;;1.48;0.60;;;15.70;85.20;;;;;;5085815;28;20027;-70
2022/06/01 09:00:43;;;;;;;4.05;1.00;;;15.80;85.50;;;;;;5102607;28;20041;-71
2022/06/01 09:03:23;;;;;;;2.28;0.85;;;15.90;84.30;;;;;;5102193;28;20062;-72
2022/06/01 09:05:53;;;;;;;1.63;0.43;;;15.90;84.90;;;;;;5102436;28;20326;-71
2022/06/01 09:08:33;;;;;;;0.77;0.50;;;16.00;83.90;;;;;;5091243;28;20359;-70
2022/06/01 09:11:05;;;;;;;1.23;0.65;;;16.00;84.60;;;;;;5082620;28;20043;-71
2022/06/01 09:13:40;;;;;;;5.68;0.60;;;16.30;83.60;;;;;;5065867;28;20029;-71
2022/06/01 09:16:13;;;;;;;0.50;0.47;;;16.50;82.60;;;;;;5066201;28;20025;-72
2022/06/01 09:18:45;;;;;;;2.22;0.52;;;16.80;81.40;;;;;;5082333;28;20020;-71
2022/06/01 09:24:23;;;;;;;0.68;0.50;;;16.90;81.40;;;;;;5067085;28;20308;-71
2022/06/01 09:26:53;;;;;;;4.10;0.60;;;17.10;80.40;;;;;;5074977;28;20196;-71
2022/06/01 09:29:21;;;;;;;1.20;0.60;;;17.10;79.90;;;;;;5085626;28;20035;-71
2022/06/01 09:31:49;;;;;;;2.65;0.60;;;17.00;80.30;;;;;;5102345;28;20034;-72
2022/06/01 09:34:26;;;;;;;6.88;1.63;;;16.90;80.20;;;;;;5101971;28;20046;-71
2022/06/01 09:37:00;;;;;;;3.22;0.82;;;16.80;80.40;;;;;;5103369;28;20197;-70
2022/06/01 09:39:26;;;;;;;1.75;0.57;;;16.40;82.00;;;;;;5085926;28;20030;-70
2022/06/01 09:42:10;;;;;;;3.65;0.80;;;16.40;82.70;;;;;;5085474;28;20024;-70
2022/06/01 09:44:40;;;;;;;2.08;0.82;;;16.40;82.30;;;;;;5102381;28;20020;-70
2022/06/01 09:47:06;;;;;;;4.78;0.90;;;16.60;82.80;;;;;;5085374;28;20024;-70
2022/06/01 09:49:36;;;;;;;1.05;0.70;;;16.60;82.20;;;;;;5101741;28;20024;-70
2022/06/01 09:52:13;;;;;;;1.65;1.13;;;16.70;81.90;;;;;;5101782;28;20323;-71
2022/06/01 09:54:44;;;;;;;3.05;1.08;;;16.50;82.10;;;;;;5102276;28;20089;-69
2022/06/01 09:57:17;;;;;;;1.08;0.80;;;16.40;82.50;;;;;;5101240;28;20024;-70
2022/06/01 10:08:22;;;;;;;3.45;1.10;;;16.20;81.80;;;;;;5080971;28;20062;-70
2022/06/01 10:11:06;;;;;;;1.65;0.90;;;16.20;82.10;;;;;;5065250;28;20024;-70
2022/06/01 10:13:38;;;;;;;4.75;1.10;;;16.20;82.00;;;;;;5082116;28;20035;-70
2022/06/01 10:16:44;;;;;;;3.85;1.05;;;16.30;80.90;;;;;;5085367;28;20028;-71
2022/06/01 10:19:14;;;;;;;2.15;1.10;;;16.50;80.80;;;;;;5073911;28;20031;-71
2022/06/01 10:21:58;;;;;;;3.63;1.00;;;16.60;80.90;;;;;;5085506;28;20020;-72
2022/06/01 10:24:31;;;;;;;2.25;1.08;;;16.70;80.00;;;;;;5083841;28;20043;-70
2022/06/01 10:26:59;;;;;;;3.20;1.40;;;16.80;79.90;;;;;;5108180;28;20027;-69
2022/06/01 10:29:32;;;;;;;3.58;1.40;;;16.90;80.00;;;;;;5125683;28;20038;-70
2022/06/01 10:32:08;;;;;;;2.53;0.98;;;17.00;79.80;;;;;;5125431;28;20028;-70
2022/06/01 10:34:59;;;;;;;5.18;1.05;;;17.00;79.90;;;;;;5108791;28;20019;-71
2022/06/01 10:37:40;;;;;;;2.90;1.23;;;17.10;80.20;;;;;;5112313;28;20234;-70
2022/06/01 10:40:20;;;;;;;3.75;1.30;;;17.20;79.30;;;;;;5109051;28;20031;-70
2022/06/01 10:45:52;;;;;;;2.85;1.10;;;17.30;79.90;;;;;;5125727;28;20011;-70
2022/06/01 10:48:30;;;;;;;3.55;1.08;;;17.20;79.30;;;;;;5068549;28;20028;-70
2022/06/01 10:51:19;;;;;;;2.70;1.13;;;17.20;79.70;;;;;;5084481;28;20090;-70
2022/06/01 10:54:08;;;;;;;3.10;1.15;;;17.10;80.10;;;;;;5087891;28;20035;-71
2022/06/01 10:56:34;;;;;;;1.55;1.15;;;17.10;80.50;;;;;;5078658;28;20100;-70
2022/06/01 10:59:12;;;;;;;1.77;0.90;;;17.20;80.30;;;;;;5084497;28;20020;-71
2022/06/01 11:01:59;;;;;;;5.10;1.23;;;17.30;80.20;;;;;;5084971;28;20036;-71
2022/06/01 11:05:09;;;;;;;2.65;1.00;;;17.30;80.10;;;;;;5085224;28;20027;-71
2022/06/01 11:08:02;;;;;;;2.03;1.10;;;17.60;78.90;;;;;;5090958;28;20040;-71
2022/06/01 11:10:56;;;;;;;2.40;1.33;;;17.90;78.10;;;;;;5104442;28;20020;-71
2022/06/01 11:13:45;;;;;;;1.92;1.02;;;18.20;77.60;;;;;;5091757;28;20338;-71
2022/06/01 11:16:39;;;;;;;1.13;0.60;;;18.40;76.50;;;;;;5104644;28;20027;-71
2022/06/01 11:19:45;;;;;;;2.78;0.80;;;18.40;76.00;;;;;;5104259;28;20074;-71
2022/06/01 11:22:50;;;;;;;1.40;1.00;;;18.60;76.10;;;;;;5104824;28;20024;-72
2022/06/01 11:25:26;;;;;;;2.95;0.70;;;18.80;75.80;;;;;;5102599;28;20031;-73
2022/06/01 11:28:18;;;;;;;1.30;0.57;;;18.60;75.80;;;;;;5085432;28;20027;-72
2022/06/01 11:30:53;;;;;;;3.08;0.75;;;18.50;74.50;;;;;;5084415;28;20042;-71
2022/06/01 11:33:42;;;;;;;2.28;0.73;;;18.30;75.90;;;;;;5067585;28;20047;-71
2022/06/01 11:36:37;;;;;;;2.33;0.75;;;18.40;76.00;;;;;;5084375;28;20215;-71
2022/06/01 11:39:29;;;;;;;3.63;1.10;;;18.50;76.20;;;;;;5070803;28;20108;-72
2022/06/01 11:42:26;;;;;;;2.25;1.02;;;18.60;77.20;;;;;;5084126;28;20025;-72
2022/06/01 11:45:16;;;;;;;0.82;0.55;;;18.90;75.80;;;;;;5083985;28;20040;-70
2022/06/01 11:47:47;;;;;;;4.45;0.77;;;18.70;74.30;;;;;;5098810;28;20047;-71
2022/06/01 11:50:42;;;;;;;0.75;0.57;;;18.60;75.80;;;;;;5103260;28;20366;-71
2022/06/01 11:53:13;;;;;;;1.95;0.60;;;18.50;74.40;;;;;;5089218;28;20303;-71
2022/06/01 11:55:44;;;;;;;2.95;0.65;;;18.50;72.90;;;;;;5103525;28;20204;-71
2022/06/01 11:58:40;;;;;;;2.03;0.80;;;18.50;73.70;;;;;;5104801;28;20028;-72
2022/06/01 12:01:13;;;;;;;3.80;1.08;;;18.70;75.70;;;;;;5091094;28;20051;-71
2022/06/01 12:03:52;;;;;;;4.05;1.00;;;18.60;77.30;;;;;;5086303;28;20048;-70
2022/06/01 12:06:42;;;;;;;1.25;0.77;;;18.50;77.40;;;;;;5086631;28;20016;-70
2022/06/01 12:09:18;;;;;;;2.17;0.95;;;18.30;78.40;;;;;;5083831;28;20074;-71
2022/06/01 12:11:46;;;;;;;1.48;0.90;;;18.20;79.00;;;;;;5083068;28;20032;-71
2022/06/01 12:14:37;;;;;;;1.23;0.60;;;18.10;79.30;;;;;;5083023;28;20023;-70
2022/06/01 12:17:24;;;;;;;2.50;1.20;;;17.90;80.00;;;;;;5070141;28;20054;-71
2022/06/01 12:20:11;;;;;;;1.95;0.80;;;17.80;80.10;;;;;;5082767;28;20245;-72
2022/06/01 12:29:07;;;;;;;1.60;0.50;;;17.80;77.80;;;;;;5086846;28;20020;-71
2022/06/01 12:31:39;;;;;;;0.65;0.50;;;17.90;77.90;;;;;;5084129;28;20040;-70
2022/06/01 12:34:16;;;;;;;1.17;0.45;;;18.20;75.30;;;;;;5083639;28;20047;-70
2022/06/01 12:37:10;;;;;;;2.22;0.60;;;18.20;74.70;;;;;;5082576;28;20309;-71
2022/06/01 12:39:50;;;;;;;3.08;0.60;;;18.40;76.00;;;;;;5082110;28;20032;-71
2022/06/01 12:42:38;;;;;;;1.92;0.50;;;18.40;75.20;;;;;;5083996;28;20295;-72
2022/06/01 12:45:11;;;;;;;0.68;0.40;;;18.60;76.00;;;;;;5082598;28;20020;-71
2022/06/01 12:47:42;;;;;;;2.10;0.57;;;18.70;75.40;;;;;;5097403;28;20210;-71
2022/06/01 12:50:16;;;;;;;1.35;0.40;;;18.80;74.70;;;;;;5102218;28;20052;-72
2022/06/01 12:52:43;;;;;;;1.00;0.50;;;18.60;74.90;;;;;;5086050;28;20032;-72
2022/06/01 12:55:18;;;;;;;4.30;0.90;;;18.50;75.20;;;;;;5102743;28;20386;-71
2022/06/01 12:57:58;;;;;;;4.40;0.70;;;18.70;75.90;;;;;;5082737;28;20264;-71
2022/06/01 13:00:30;;;;;;;1.00;0.43;;;18.70;74.90;;;;;;5083222;28;20184;-71
2022/06/01 13:02:56;;;;;;;;;;;18.70;75.90;;;;;;5082862;28;20051;-71
2022/06/01 13:05:41;;;;;;;2.97;0.82;;;18.90;75.70;;;;;;5082215;28;19901;-71
2022/06/01 13:08:14;;;;;;;2.42;0.60;;;18.80;75.90;;;;;;5089416;28;20021;-71
2022/06/01 13:10:40;;;;;;;3.30;1.00;;;18.90;75.40;;;;;;5081475;28;20017;-71
2022/06/01 13:13:14;;;;;;;3.15;0.80;;;19.10;75.30;;;;;;5082127;28;20035;-71
2022/06/01 13:15:42;;;;;;;1.17;0.73;;;19.00;75.20;;;;;;5082419;28;20021;-73
2022/06/01 13:18:14;;;;;;;2.55;0.63;;;18.70;75.80;;;;;;5098813;28;20023;-70
2022/06/01 13:20:42;;;;;;;;;;;18.70;75.70;;;;;;5082620;28;20032;-71
2022/06/01 13:23:25;;;;;;;7.05;1.30;;;18.80;75.90;;;;;;5081903;28;19922;-72
2022/06/01 13:25:52;;;;;;;1.95;0.90;;;18.70;76.10;;;;;;5086809;28;20052;-71
2022/06/01 13:28:19;;;;;;;3.72;0.60;;;18.80;76.30;;;;;;5122470;28;20026;-71
2022/06/01 13:30:45;;;;;;;2.40;1.00;;;18.90;76.20;;;;;;5123612;28;20068;-70
2022/06/01 13:33:41;;;;;;;1.70;0.90;;;19.00;76.60;;;;;;5123352;28;20327;-70
2022/06/01 13:36:12;;;;;;;11.70;1.58;;;19.20;75.60;;;;;;5123845;28;20352;-70
2022/06/01 13:38:49;;;;;;;1.23;0.60;;;19.30;76.50;;;;;;5089066;28;20059;-71
2022/06/01 13:41:26;;;;;;;6.10;1.20;;;19.20;76.70;;;;;;5123563;28;20316;-71